createdAt,value
2023-01-10T00:05:03.072Z,25.17
2023-01-10T00:10:06.029Z,21.95
2023-01-10T00:15:14.707Z,35.20
2023-01-10T00:20:45.445Z,72.57
2023-01-10T00:31:28.719Z,37.20
2023-01-10T00:36:34.865Z,34.85
2023-01-10T00:42:29.735Z,40.78
2023-01-10T00:49:02.013Z,58.50
2023-01-10T00:54:15.985Z,59.80
2023-01-10T00:59:57.209Z,58.08
2023-01-10T01:05:53.146Z,42.22
2023-01-10T01:11:34.394Z,29.80
2023-01-10T01:29:07.038Z,15.65
2023-01-10T01:35:13.857Z,18.77
2023-01-10T01:59:18.518Z,23.50
2023-01-10T02:05:01.447Z,15.50
2023-01-10T02:11:04.639Z,8.90
2023-01-10T02:22:24.682Z,7.32
2023-01-10T02:27:37.518Z,8.82
2023-01-10T02:33:05.525Z,12.32
2023-01-10T02:38:18.119Z,15.75
2023-01-10T02:43:44.058Z,11.98
2023-01-10T02:48:46.686Z,9.95
2023-01-10T02:54:20.715Z,9.38
2023-01-10T02:59:39.039Z,9.27
2023-01-10T03:05:04.878Z,9.32
2023-01-10T03:10:38.232Z,9.48
2023-01-10T03:15:42.569Z,9.88
2023-01-10T03:20:49.754Z,8.82
2023-01-10T03:25:57.308Z,9.07
2023-01-10T03:37:28.600Z,6.90
2023-01-10T03:43:22.639Z,6.65
2023-01-10T03:48:28.093Z,6.90
2023-01-10T03:53:32.507Z,6.32
2023-01-10T03:58:35.393Z,7.50
2023-01-10T04:03:39.133Z,9.32
2023-01-10T04:08:43.137Z,6.20
2023-01-10T04:14:10.431Z,10.23
2023-01-10T04:19:13.358Z,10.98
2023-01-10T04:24:15.877Z,8.30
2023-01-10T04:29:18.634Z,7.47
2023-01-10T04:34:21.885Z,7.60
2023-01-10T04:39:24.626Z,7.93
2023-01-10T04:44:31.284Z,7.33
2023-01-10T04:49:34.011Z,7.97
2023-01-10T04:54:36.629Z,7.80
2023-01-10T04:59:39.252Z,8.45
2023-01-10T05:04:41.932Z,6.10
2023-01-10T05:09:44.845Z,7.10
2023-01-10T05:20:51.341Z,6.32
2023-01-10T05:26:25.405Z,6.53
2023-01-10T05:38:04.226Z,6.07
2023-01-10T05:43:07.216Z,9.85
2023-01-10T05:48:09.961Z,16.57
2023-01-10T05:53:38.992Z,14.95
2023-01-10T05:58:47.256Z,11.13
2023-01-10T06:04:13.863Z,15.93
2023-01-10T06:09:34.670Z,13.75
2023-01-10T06:14:41.048Z,9.93
2023-01-10T06:19:50.121Z,10.27
2023-01-10T06:25:34.282Z,8.93
2023-01-10T06:30:52.156Z,8.40
2023-01-10T06:41:53.419Z,9.43
2023-01-10T06:46:56.550Z,8.57
2023-01-10T06:51:59.303Z,8.52
2023-01-10T06:57:01.777Z,10.38
2023-01-10T07:02:11.767Z,9.83
2023-01-10T07:07:14.869Z,9.95
2023-01-10T07:12:47.421Z,9.00
2023-01-10T07:17:55.875Z,9.60
2023-01-10T07:23:00.599Z,9.60
2023-01-10T07:28:06.062Z,12.40
2023-01-10T07:33:34.132Z,16.02
2023-01-10T07:38:44.761Z,18.52
2023-01-10T07:43:47.499Z,13.95
2023-01-10T07:48:49.925Z,11.53
2023-01-10T07:53:52.286Z,9.70
2023-01-10T07:58:54.718Z,9.30
2023-01-10T08:03:58.592Z,10.70
2023-01-10T08:09:05.324Z,11.48
2023-01-10T08:14:07.813Z,10.65
2023-01-10T08:19:30.021Z,10.38
2023-01-10T08:24:33.377Z,9.63
2023-01-10T08:29:40.946Z,9.20
2023-01-10T08:35:06.289Z,8.70
2023-01-10T08:40:21.596Z,8.95
2023-01-10T08:45:33.799Z,8.00
2023-01-10T08:51:07.834Z,7.85
2023-01-10T08:56:10.552Z,9.68
2023-01-10T09:01:19.160Z,9.33
2023-01-10T09:06:28.236Z,10.63
2023-01-10T09:11:32.157Z,10.33
2023-01-10T09:16:37.045Z,9.98
2023-01-10T09:21:42.477Z,11.40
2023-01-10T09:32:15.005Z,9.55
2023-01-10T09:37:19.321Z,9.38
2023-01-10T09:42:22.699Z,9.32
2023-01-10T09:47:31.910Z,8.60
2023-01-10T09:52:38.272Z,8.10
2023-01-10T09:57:41.508Z,12.05
2023-01-10T10:02:46.141Z,12.77
2023-01-10T10:07:59.160Z,9.43
2023-01-10T10:13:23.050Z,9.83
2023-01-10T10:18:47.453Z,8.57
2023-01-10T10:24:39.066Z,9.00
2023-01-10T10:29:54.908Z,8.68
2023-01-10T10:35:02.585Z,9.57
2023-01-10T10:40:18.577Z,8.05
2023-01-10T10:45:33.734Z,9.57
2023-01-10T10:57:22.812Z,10.00
2023-01-10T11:02:33.586Z,12.30
2023-01-10T11:07:50.256Z,14.07
2023-01-10T11:13:22.427Z,13.40
2023-01-10T11:18:45.782Z,12.98
2023-01-10T11:29:54.302Z,13.85
2023-01-10T11:35:00.864Z,21.10
2023-01-10T11:40:27.747Z,15.73
2023-01-10T11:45:33.654Z,14.90
2023-01-10T11:50:42.646Z,15.50
2023-01-10T12:01:40.936Z,19.05
2023-01-10T12:06:45.935Z,20.05
2023-01-10T12:12:02.556Z,20.50
2023-01-10T12:17:05.086Z,14.35
2023-01-10T12:22:09.047Z,15.32
2023-01-10T12:27:32.853Z,18.90
2023-01-10T12:32:39.701Z,26.70
2023-01-10T12:37:47.933Z,20.15
2023-01-10T12:43:20.257Z,19.52
2023-01-10T12:48:29.695Z,24.92
2023-01-10T12:53:36.299Z,18.10
2023-01-10T12:58:45.340Z,29.30
2023-01-10T13:03:53.871Z,29.55
2023-01-10T13:08:58.239Z,25.92
2023-01-10T13:14:05.715Z,36.70
2023-01-10T13:19:11.181Z,27.23
2023-01-10T13:24:26.426Z,24.73
2023-01-10T13:29:52.885Z,21.60
2023-01-10T13:35:16.699Z,19.70
2023-01-10T13:40:24.553Z,16.88
2023-01-10T13:45:29.140Z,18.17
2023-01-10T13:50:37.939Z,15.90
2023-01-10T13:55:42.691Z,22.10
2023-01-10T14:01:06.526Z,24.90
2023-01-10T14:11:42.843Z,20.40
2023-01-10T14:16:48.723Z,22.30
2023-01-10T14:21:55.936Z,34.08
2023-01-10T14:27:02.327Z,24.00
2023-01-10T14:32:06.920Z,18.88
2023-01-10T14:37:16.964Z,13.50
2023-01-10T14:42:19.835Z,13.80
2023-01-10T14:47:30.438Z,16.10
2023-01-10T14:52:33.125Z,17.35
2023-01-10T14:57:35.623Z,19.67
2023-01-10T15:02:38.656Z,22.60
2023-01-10T15:07:41.365Z,20.65
2023-01-10T15:12:45.153Z,39.90
2023-01-10T15:17:47.736Z,64.38
2023-01-10T15:22:58.624Z,55.33
2023-01-10T15:28:02.913Z,49.13
2023-01-10T15:33:11.252Z,37.83
2023-01-10T15:38:16.882Z,52.50
2023-01-10T15:43:30.523Z,45.35
2023-01-10T15:48:35.480Z,48.97
2023-01-10T15:53:58.091Z,52.33
2023-01-10T15:59:03.173Z,64.65
2023-01-10T16:04:13.363Z,63.70
2023-01-10T16:09:20.987Z,46.38
2023-01-10T16:14:23.627Z,57.33
2023-01-10T16:19:26.129Z,46.83
2023-01-10T16:24:30.731Z,49.75
2023-01-10T16:29:33.545Z,49.80
2023-01-10T16:34:35.987Z,40.83
2023-01-10T16:39:38.511Z,46.03
2023-01-10T16:44:41.809Z,36.88
2023-01-10T16:49:46.044Z,51.45
2023-01-10T16:54:49.245Z,43.83
2023-01-10T16:59:51.769Z,38.67
2023-01-10T17:04:55.172Z,40.95
2023-01-10T17:09:58.791Z,67.90
2023-01-10T17:15:04.110Z,71.55
2023-01-10T17:20:26.643Z,58.80
2023-01-10T17:25:29.024Z,59.00
2023-01-10T17:30:31.314Z,101.55
2023-01-10T17:35:33.673Z,115.68
2023-01-10T17:40:40.313Z,128.52
2023-01-10T17:45:44.542Z,96.65
2023-01-10T17:56:50.931Z,175.82
2023-01-10T18:02:22.515Z,148.77
2023-01-10T18:07:25.522Z,116.88
2023-01-10T18:12:28.246Z,95.90
2023-01-10T18:17:30.697Z,86.05
2023-01-10T18:22:51.770Z,71.70
2023-01-10T18:27:55.545Z,49.80
2023-01-10T18:32:58.051Z,52.00
2023-01-10T18:38:00.736Z,41.28
2023-01-10T18:43:03.286Z,30.53
2023-01-10T18:48:05.896Z,42.30
2023-01-10T18:53:08.790Z,110.25
2023-01-10T18:58:17.901Z,109.25
2023-01-10T19:03:20.619Z,83.25
2023-01-10T19:08:23.142Z,84.57
2023-01-10T19:13:25.981Z,104.65
2023-01-10T19:18:28.401Z,103.90
2023-01-10T19:23:31.043Z,104.18
2023-01-10T19:28:33.916Z,80.70
2023-01-10T19:33:37.700Z,72.73
2023-01-10T19:43:42.922Z,92.95
2023-01-10T19:48:45.365Z,72.97
2023-01-10T19:53:49.327Z,68.03
2023-01-10T19:58:54.061Z,60.58
2023-01-10T20:09:00.257Z,41.00
2023-01-10T20:14:21.028Z,22.10
2023-01-10T20:19:24.035Z,27.67
2023-01-10T20:24:29.635Z,31.20
2023-01-10T20:29:33.645Z,26.13
2023-01-10T20:34:36.391Z,33.65
2023-01-10T20:39:38.875Z,45.93
2023-01-10T20:44:42.681Z,36.90
2023-01-10T20:49:45.049Z,27.48
2023-01-10T20:54:47.440Z,22.52
2023-01-10T20:59:50.070Z,22.73
2023-01-10T21:04:52.631Z,19.77
2023-01-10T21:09:54.999Z,21.98
2023-01-10T21:14:57.384Z,18.77
2023-01-10T21:19:59.753Z,17.58
2023-01-10T21:25:02.166Z,17.88
2023-01-10T21:30:06.444Z,20.05
2023-01-10T21:35:12.439Z,21.85
2023-01-10T21:40:15.977Z,20.05
2023-01-10T21:45:20.381Z,21.40
2023-01-10T21:50:23.134Z,22.60
2023-01-10T21:55:28.892Z,23.50
2023-01-10T22:00:32.159Z,25.08
2023-01-10T22:05:34.658Z,28.85
2023-01-10T22:10:37.031Z,26.02
2023-01-10T22:15:41.327Z,30.13
2023-01-10T22:20:45.071Z,37.75
2023-01-10T22:26:05.378Z,39.95
2023-01-10T22:31:08.230Z,31.50
2023-01-10T22:36:16.710Z,26.27
2023-01-10T22:41:27.475Z,19.52
2023-01-10T22:46:30.530Z,17.50
2023-01-10T22:51:35.636Z,16.23
2023-01-10T22:56:38.164Z,15.55
2023-01-10T23:01:41.227Z,16.90
2023-01-10T23:06:43.692Z,17.85
2023-01-10T23:11:46.045Z,17.90
2023-01-10T23:16:49.279Z,14.90
2023-01-10T23:21:52.730Z,15.88
2023-01-10T23:26:55.151Z,16.23
2023-01-10T23:31:57.603Z,15.50
2023-01-10T23:37:00.129Z,15.30
2023-01-10T23:42:02.730Z,17.20
2023-01-10T23:47:07.839Z,16.50
2023-01-10T23:52:24.958Z,15.90
2023-01-10T23:57:27.701Z,15.80
